Relevés horaires Saint-Mandrier-sur-Mer - Cap Cépet (France)


Relevés horaires à Saint-Mandrier-sur-Mer - Cap Cépet - Mercredi 05 Févr. 2020
Heure UTC1 Température [°C] Vent [km/h] Hum. [%] Pres.4 [hPa] Visi. [Km] Nébu. [octa] Préc.5 [mm] Cond.
2m. Res. Ros. Dir.2 Vit. Moy. Raf.3
23:00 9.6 9.1 -0.1 ESE 5.6 -- 11.1 51 1026.7(2.4/3h) -- -- -- --
22:00 9.5 8.2 -0.4 E 9.3 -- 18.5 50 1026.2(2.3/3h) -- -- -- --
21:00 10.1 8.6 -0.4 E 11.1 -- 14.8 48 1025.1(1.7/3h) -- -- -- --
20:00 10.7 10.4 -2.4 ENE 5.6 -- 11.1 40 1024.2(1.7/3h) -- -- -- --
19:00 11.1 10.1 -1.0 E 9.3 -- 13.0 43 1023.8(2.1/3h) -- -- -- --
18:00 13.1 13.1 2.0 SE 5.6 -- 13.0 47 1023.2(1.8/3h) -- -- -- --
17:00 13.0 12.3 0.7 SO 9.3 -- 11.1 43 1022.3(1.1/3h) -- -- -- --
16:00 15.2 15.2 2.7 OSO 7.4 -- 9.3 43 1021.4(-0.3/3h) -- -- -- --
15:00 15.4 15.4 4.7 SO 7.4 -- 13.0 49 1021.3(-1.2/3h) -- -- -- --
14:00 15.9 15.9 -0.8 SO 3.7 -- 7.4 32 1021(-1.7/3h) -- -- -- --
13:00 15.8 15.8 1.1 SO 3.7 -- 7.4 37 1021.7(-1.3/3h) -- -- -- --
12:00 14.6 14.6 0.1 SO 5.6 -- 9.3 37 1022.5(-0.6/3h) -- -- -- --
11:00 14.3 14.3 1.2 S 5.6 -- 11.1 41 1022.9(0.0/3h) -- -- -- --
10:00 13.5 13.5 -1.3 SO 1.9 -- 9.3 36 1023.1(0.9/3h) -- -- -- --
09:00 11.5 10.9 -0.7 OSO 7.4 -- 9.3 43 1023.3(1.1/3h) 30 0/8 -- --
08:00 10.2 10.2 -3.5 SSO 3.7 -- 14.8 38 1023.1(1.0/3h) -- -- -- --
07:00 8.3 6.7 -3.6 NNO 9.3 -- 16.7 43 1022.5(0.0/3h) -- -- -- --
06:00 8.4 6.9 -3.8 NO 9.3 -- 18.5 42 1022.4(0.0/3h) -- -- -- --
05:00 8.1 5.6 -3.4 NNO 14.8 -- 27.8 44 1022.2(-0.8/3h) -- -- -- --
04:00 7.4 4.5 -1.3 NO 16.7 -- 40.7 54 1022.6(-0.3/3h) -- -- -- --
03:00 7.2 3.4 -0.8 NNO 24.1 -- 37.0 57 1022.5(-1.2/3h) -- -- -- --
02:00 7.4 3.7 -1.3 NO 24.1 -- 38.9 54 1023.1(-0.4/3h) -- -- -- --
01:00 7.7 3.6 -0.5 NNO 29.6 -- 38.9 56 1022.9(0.4/3h) -- -- -- --
00:00 7.7 4.1 -0.5 NNO 24.1 -- 33.3 56 1023.7(1.8/3h) -- -- -- --

1 Coordinated Universal Time. Actuellement il est 04:00 locale et 02:00 UTC.

2 Le vent souffle depuis la direction indiquée vers la direction oposée.

3 Les rafales max. sont disponible 40 min après l'heure du relevé.

4 Pour les stations d'altitude (plus de 600m) le géopotentiel du niveau le plus proche de la pression obligatoire est indiqué.

5 Les stations disposant d'un diffuseur peuvent indiquer "trace". Cela signifie que des précipitations ont touchés le sol mais que la quantité est inférieure à 0.1 mm.

Récapitulatif de la journée
Température [°C] Vent [km/h] Ensoleillement4 [h] Precipitations totale5 [mm] Pression [Hpa]
Min1 Max.2 Moy.3 Max. Min Max.
7.1 16.7 0 40.7 0 h 0 min 0 1021.0 1026.7

1 Température minimale relevée entre 18:00 UTC la veille et 18:00 UTC le jour donné.

2 Température maximale relevée entre 06:00 UTC le jour donné et 06:00 UTC le lendemain.

3 Vent moyen de la journée basé sur les relevés horaires.

4 Ensoleillement en heures relevé entre 06:00 UTC la veille et 06:00 UTC le jour donné.

5 Précipitations totales tombées entre 06:00 UTC la jour donné et 06:00 UTC le lendemain.

Graphiques horaires